sensor_id;sensor_type;location;lat;lon;timestamp;pressure;altitude;pressure_sealevel;temperature;humidity
77706;BME280;66874;45.274;5.880;2023-06-14T00:00:45;98273.16;;;17.95;84.36
77706;BME280;66874;45.274;5.880;2023-06-14T00:03:11;98277.59;;;17.94;84.33
77706;BME280;66874;45.274;5.880;2023-06-14T00:05:40;98274.22;;;17.92;84.42
77706;BME280;66874;45.274;5.880;2023-06-14T00:08:09;98282.34;;;17.89;84.62
77706;BME280;66874;45.274;5.880;2023-06-14T00:10:35;98280.53;;;17.90;84.44
77706;BME280;66874;45.274;5.880;2023-06-14T00:13:03;98269.22;;;17.88;84.48
77706;BME280;66874;45.274;5.880;2023-06-14T00:15:30;98272.78;;;17.87;84.52
77706;BME280;66874;45.274;5.880;2023-06-14T00:17:59;98270.25;;;17.85;84.59
77706;BME280;66874;45.274;5.880;2023-06-14T00:20:26;98267.72;;;17.84;84.49
77706;BME280;66874;45.274;5.880;2023-06-14T00:22:53;98265.25;;;17.80;84.52
77706;BME280;66874;45.274;5.880;2023-06-14T00:25:19;98259.94;;;17.80;84.64
77706;BME280;66874;45.274;5.880;2023-06-14T00:27:44;98253.81;;;17.80;84.60
77706;BME280;66874;45.274;5.880;2023-06-14T00:30:10;98250.28;;;17.79;84.78
77706;BME280;66874;45.274;5.880;2023-06-14T00:32:36;98249.38;;;17.80;84.65
77706;BME280;66874;45.274;5.880;2023-06-14T00:35:01;98256.47;;;17.80;84.86
77706;BME280;66874;45.274;5.880;2023-06-14T00:37:27;98248.53;;;17.80;84.70
77706;BME280;66874;45.274;5.880;2023-06-14T00:39:52;98247.75;;;17.78;84.74
77706;BME280;66874;45.274;5.880;2023-06-14T00:42:27;98243.41;;;17.77;84.64
77706;BME280;66874;45.274;5.880;2023-06-14T00:44:53;98234.63;;;17.76;84.83
77706;BME280;66874;45.274;5.880;2023-06-14T00:47:19;98236.44;;;17.76;84.79
77706;BME280;66874;45.274;5.880;2023-06-14T00:49:46;98239.94;;;17.76;84.66
77706;BME280;66874;45.274;5.880;2023-06-14T00:52:12;98238.19;;;17.75;84.54
77706;BME280;66874;45.274;5.880;2023-06-14T00:54:40;98246.06;;;17.77;84.60
77706;BME280;66874;45.274;5.880;2023-06-14T00:57:06;98245.88;;;17.80;84.44
77706;BME280;66874;45.274;5.880;2023-06-14T00:59:33;98242.09;;;17.84;84.55
77706;BME280;66874;45.274;5.880;2023-06-14T01:01:58;98239.44;;;17.84;84.29
77706;BME280;66874;45.274;5.880;2023-06-14T01:04:24;98249.19;;;17.84;84.11
77706;BME280;66874;45.274;5.880;2023-06-14T01:06:59;98244.09;;;17.80;84.00
77706;BME280;66874;45.274;5.880;2023-06-14T01:14:47;98241.44;;;17.80;83.63
77706;BME280;66874;45.274;5.880;2023-06-14T01:17:13;98248.53;;;17.80;83.63
77706;BME280;66874;45.274;5.880;2023-06-14T01:19:45;98251.25;;;17.78;83.57
77706;BME280;66874;45.274;5.880;2023-06-14T01:22:11;98245.94;;;17.78;83.59
77706;BME280;66874;45.274;5.880;2023-06-14T01:24:37;98249.38;;;17.80;83.60
77706;BME280;66874;45.274;5.880;2023-06-14T01:27:04;98254.72;;;17.79;83.54
77706;BME280;66874;45.274;5.880;2023-06-14T01:29:31;98255.59;;;17.79;83.43
77706;BME280;66874;45.274;5.880;2023-06-14T01:31:59;98260.13;;;17.77;83.55
77706;BME280;66874;45.274;5.880;2023-06-14T01:34:25;98261.22;;;17.73;83.66
77706;BME280;66874;45.274;5.880;2023-06-14T01:36:52;98258.78;;;17.70;83.81
77706;BME280;66874;45.274;5.880;2023-06-14T01:39:20;98263.22;;;17.70;83.54
77706;BME280;66874;45.274;5.880;2023-06-14T01:41:47;98271.25;;;17.68;83.79
77706;BME280;66874;45.274;5.880;2023-06-14T01:44:15;98268.59;;;17.68;83.83
77706;BME280;66874;45.274;5.880;2023-06-14T01:46:41;98270.38;;;17.68;83.88
77706;BME280;66874;45.274;5.880;2023-06-14T01:49:07;98275.78;;;17.66;83.87
77706;BME280;66874;45.274;5.880;2023-06-14T01:51:33;98268.78;;;17.65;83.82
77706;BME280;66874;45.274;5.880;2023-06-14T01:53:58;98270.47;;;17.66;83.94
77706;BME280;66874;45.274;5.880;2023-06-14T01:56:25;98264.34;;;17.66;83.92
77706;BME280;66874;45.274;5.880;2023-06-14T01:58:51;98259.06;;;17.66;83.82
77706;BME280;66874;45.274;5.880;2023-06-14T02:01:17;98271.34;;;17.67;83.78
77706;BME280;66874;45.274;5.880;2023-06-14T02:03:44;98269.63;;;17.66;83.69
77706;BME280;66874;45.274;5.880;2023-06-14T02:06:10;98265.31;;;17.65;83.68
77706;BME280;66874;45.274;5.880;2023-06-14T02:08:35;98273.31;;;17.63;83.58
77706;BME280;66874;45.274;5.880;2023-06-14T02:11:01;98266.31;;;17.62;83.47
77706;BME280;66874;45.274;5.880;2023-06-14T02:13:26;98274.16;;;17.64;83.77
77706;BME280;66874;45.274;5.880;2023-06-14T02:15:52;98272.56;;;17.61;83.71
77706;BME280;66874;45.274;5.880;2023-06-14T02:18:20;98271.50;;;17.64;83.55
77706;BME280;66874;45.274;5.880;2023-06-14T02:20:46;98276.72;;;17.65;83.51
77706;BME280;66874;45.274;5.880;2023-06-14T02:23:11;98266.16;;;17.65;83.35
77706;BME280;66874;45.274;5.880;2023-06-14T02:25:37;98272.09;;;17.69;83.30
77706;BME280;66874;45.274;5.880;2023-06-14T02:28:02;98271.16;;;17.70;83.50
77706;BME280;66874;45.274;5.880;2023-06-14T02:30:28;98270.88;;;17.74;83.30
77706;BME280;66874;45.274;5.880;2023-06-14T02:32:53;98267.28;;;17.75;83.43
77706;BME280;66874;45.274;5.880;2023-06-14T02:35:19;98271.56;;;17.78;83.32
77706;BME280;66874;45.274;5.880;2023-06-14T02:37:45;98274.03;;;17.81;83.32
77706;BME280;66874;45.274;5.880;2023-06-14T02:40:11;98275.72;;;17.82;83.49
77706;BME280;66874;45.274;5.880;2023-06-14T02:42:37;98274.97;;;17.80;83.49
77706;BME280;66874;45.274;5.880;2023-06-14T02:45:02;98277.63;;;17.80;83.52
77706;BME280;66874;45.274;5.880;2023-06-14T02:47:29;98280.34;;;17.78;83.56
77706;BME280;66874;45.274;5.880;2023-06-14T02:49:55;98277.69;;;17.78;83.55
77706;BME280;66874;45.274;5.880;2023-06-14T02:52:20;98283.09;;;17.77;83.51
77706;BME280;66874;45.274;5.880;2023-06-14T02:54:47;98286.69;;;17.76;83.61
77706;BME280;66874;45.274;5.880;2023-06-14T02:57:12;98284.06;;;17.76;83.71
77706;BME280;66874;45.274;5.880;2023-06-14T02:59:37;98280.34;;;17.78;83.71
77706;BME280;66874;45.274;5.880;2023-06-14T03:02:03;98278.53;;;17.79;83.80
77706;BME280;66874;45.274;5.880;2023-06-14T03:04:28;98279.31;;;17.81;83.75
77706;BME280;66874;45.274;5.880;2023-06-14T03:06:54;98273.91;;;17.83;83.85
77706;BME280;66874;45.274;5.880;2023-06-14T03:09:20;98273.06;;;17.82;83.60
77706;BME280;66874;45.274;5.880;2023-06-14T03:11:45;98273.91;;;17.83;83.57
77706;BME280;66874;45.274;5.880;2023-06-14T03:14:11;98278.38;;;17.82;83.44
77706;BME280;66874;45.274;5.880;2023-06-14T03:16:38;98279.31;;;17.81;83.49
77706;BME280;66874;45.274;5.880;2023-06-14T03:19:04;98276.66;;;17.81;83.44
77706;BME280;66874;45.274;5.880;2023-06-14T03:21:29;98281.00;;;17.82;83.47
77706;BME280;66874;45.274;5.880;2023-06-14T03:23:55;98273.91;;;17.83;83.43
77706;BME280;66874;45.274;5.880;2023-06-14T03:26:21;98271.38;;;17.81;83.41
77706;BME280;66874;45.274;5.880;2023-06-14T03:28:47;98273.91;;;17.83;83.28
77706;BME280;66874;45.274;5.880;2023-06-14T03:31:16;98277.63;;;17.80;83.35
77706;BME280;66874;45.274;5.880;2023-06-14T03:33:41;98278.53;;;17.79;83.47
77706;BME280;66874;45.274;5.880;2023-06-14T03:36:07;98280.34;;;17.78;83.39
77706;BME280;66874;45.274;5.880;2023-06-14T03:38:33;98276.75;;;17.79;83.39
77706;BME280;66874;45.274;5.880;2023-06-14T03:40:58;98280.16;;;17.81;83.13
77706;BME280;66874;45.274;5.880;2023-06-14T03:43:24;98279.31;;;17.81;83.25
77706;BME280;66874;45.274;5.880;2023-06-14T03:45:50;98273.19;;;17.80;83.32
77706;BME280;66874;45.274;5.880;2023-06-14T03:48:15;98269.75;;;17.78;83.35
77706;BME280;66874;45.274;5.880;2023-06-14T03:50:41;98270.59;;;17.79;83.46
77706;BME280;66874;45.274;5.880;2023-06-14T03:53:08;98271.38;;;17.81;83.28
77706;BME280;66874;45.274;5.880;2023-06-14T03:55:34;98269.69;;;17.80;83.26
77706;BME280;66874;45.274;5.880;2023-06-14T03:58:00;98266.16;;;17.79;83.35
77706;BME280;66874;45.274;5.880;2023-06-14T04:00:25;98267.97;;;17.79;83.36
77706;BME280;66874;45.274;5.880;2023-06-14T04:02:51;98265.25;;;17.80;83.46
77706;BME280;66874;45.274;5.880;2023-06-14T04:05:17;98272.22;;;17.81;83.43
77706;BME280;66874;45.274;5.880;2023-06-14T04:07:44;98273.91;;;17.83;83.34
77706;BME280;66874;45.274;5.880;2023-06-14T04:10:11;98276.75;;;17.79;83.53
77706;BME280;66874;45.274;5.880;2023-06-14T04:12:37;98288.28;;;17.78;83.44
77706;BME280;66874;45.274;5.880;2023-06-14T04:15:02;98284.97;;;17.75;83.27
77706;BME280;66874;45.274;5.880;2023-06-14T04:17:28;98293.34;;;17.67;83.69
77706;BME280;66874;45.274;5.880;2023-06-14T04:19:54;98289.78;;;17.68;83.70
77706;BME280;66874;45.274;5.880;2023-06-14T04:22:20;98296.66;;;17.71;83.55
77706;BME280;66874;45.274;5.880;2023-06-14T04:24:45;98302.78;;;17.71;83.39
77706;BME280;66874;45.274;5.880;2023-06-14T04:27:11;98299.97;;;17.74;83.16
77706;BME280;66874;45.274;5.880;2023-06-14T04:29:36;98302.56;;;17.76;83.08
77706;BME280;66874;45.274;5.880;2023-06-14T04:32:02;98306.81;;;17.78;83.22
77706;BME280;66874;45.274;5.880;2023-06-14T04:34:28;98313.72;;;17.81;83.04
77706;BME280;66874;45.274;5.880;2023-06-14T04:36:58;98311.81;;;17.83;83.01
77706;BME280;66874;45.274;5.880;2023-06-14T04:39:26;98318.59;;;17.87;82.84
77706;BME280;66874;45.274;5.880;2023-06-14T04:41:53;98326.38;;;17.90;82.85
77706;BME280;66874;45.274;5.880;2023-06-14T04:44:22;98329.78;;;17.92;82.64
77706;BME280;66874;45.274;5.880;2023-06-14T04:46:49;98339.31;;;17.95;82.84
77706;BME280;66874;45.274;5.880;2023-06-14T04:49:15;98341.97;;;17.95;82.71
77706;BME280;66874;45.274;5.880;2023-06-14T04:51:41;98344.53;;;17.96;82.93
77706;BME280;66874;45.274;5.880;2023-06-14T04:54:08;98349.06;;;17.94;83.16
77706;BME280;66874;45.274;5.880;2023-06-14T04:56:36;98342.16;;;17.92;83.13
77706;BME280;66874;45.274;5.880;2023-06-14T04:59:03;98339.59;;;17.90;83.53
77706;BME280;66874;45.274;5.880;2023-06-14T05:01:32;98347.72;;;17.87;83.68
77706;BME280;66874;45.274;5.880;2023-06-14T05:03:58;98349.63;;;17.85;83.40
77706;BME280;66874;45.274;5.880;2023-06-14T05:06:24;98342.53;;;17.86;83.85
77706;BME280;66874;45.274;5.880;2023-06-14T05:08:50;98339.59;;;17.90;83.79
77706;BME280;66874;45.274;5.880;2023-06-14T05:11:16;98344.53;;;17.96;83.86
77706;BME280;66874;45.274;5.880;2023-06-14T05:13:42;98349.66;;;17.99;83.74
77706;BME280;66874;45.274;5.880;2023-06-14T05:16:08;98352.97;;;18.03;83.68
77706;BME280;66874;45.274;5.880;2023-06-14T05:18:34;98356.28;;;18.07;83.76
77706;BME280;66874;45.274;5.880;2023-06-14T05:21:01;98355.22;;;18.09;83.73
77706;BME280;66874;45.274;5.880;2023-06-14T05:23:26;98352.50;;;18.11;83.82
77706;BME280;66874;45.274;5.880;2023-06-14T05:25:52;98354.19;;;18.12;83.62
77706;BME280;66874;45.274;5.880;2023-06-14T05:28:18;98357.78;;;18.11;83.70
77706;BME280;66874;45.274;5.880;2023-06-14T05:30:43;98355.97;;;18.11;83.83
77706;BME280;66874;45.274;5.880;2023-06-14T05:33:09;98361.34;;;18.10;83.66
77706;BME280;66874;45.274;5.880;2023-06-14T05:35:34;98351.72;;;18.09;83.50
77706;BME280;66874;45.274;5.880;2023-06-14T05:38:00;98352.56;;;18.09;83.40
77706;BME280;66874;45.274;5.880;2023-06-14T05:40:25;98360.50;;;18.09;83.50
77706;BME280;66874;45.274;5.880;2023-06-14T05:42:50;98361.28;;;18.11;83.87
77706;BME280;66874;45.274;5.880;2023-06-14T05:45:16;98364.00;;;18.10;83.65
77706;BME280;66874;45.274;5.880;2023-06-14T05:47:42;98364.09;;;18.08;83.74
77706;BME280;66874;45.274;5.880;2023-06-14T05:50:07;98365.72;;;18.11;83.96
77706;BME280;66874;45.274;5.880;2023-06-14T05:52:34;98364.59;;;18.15;83.83
77706;BME280;66874;45.274;5.880;2023-06-14T05:55:00;98366.38;;;18.14;83.82
77706;BME280;66874;45.274;5.880;2023-06-14T05:57:26;98358.81;;;18.08;84.06
77706;BME280;66874;45.274;5.880;2023-06-14T05:59:52;98364.09;;;18.08;84.22
77706;BME280;66874;45.274;5.880;2023-06-14T06:02:17;98353.41;;;18.10;84.38
77706;BME280;66874;45.274;5.880;2023-06-14T06:04:43;98354.38;;;18.09;84.39
77706;BME280;66874;45.274;5.880;2023-06-14T06:07:08;98356.28;;;18.07;84.53
77706;BME280;66874;45.274;5.880;2023-06-14T06:09:33;98355.41;;;18.06;84.51
77706;BME280;66874;45.274;5.880;2023-06-14T06:11:59;98350.31;;;18.03;84.56
77706;BME280;66874;45.274;5.880;2023-06-14T06:14:24;98347.75;;;18.01;84.67
77706;BME280;66874;45.274;5.880;2023-06-14T06:16:50;98351.22;;;18.02;84.91
77706;BME280;66874;45.274;5.880;2023-06-14T06:19:18;98353.13;;;18.00;85.09
77706;BME280;66874;45.274;5.880;2023-06-14T06:21:43;98352.00;;;18.04;85.01
77706;BME280;66874;45.274;5.880;2023-06-14T06:24:08;98356.34;;;18.05;84.99
77706;BME280;66874;45.274;5.880;2023-06-14T06:26:34;98350.97;;;18.07;85.04
77706;BME280;66874;45.274;5.880;2023-06-14T06:28:59;98350.09;;;18.06;85.01
77706;BME280;66874;45.274;5.880;2023-06-14T06:31:25;98347.28;;;18.09;85.09
77706;BME280;66874;45.274;5.880;2023-06-14T06:33:52;98348.59;;;18.16;85.01
77706;BME280;66874;45.274;5.880;2023-06-14T06:36:19;98345.38;;;18.25;85.16
77706;BME280;66874;45.274;5.880;2023-06-14T06:38:45;98343.88;;;18.36;85.30
77706;BME280;66874;45.274;5.880;2023-06-14T06:41:10;98354.66;;;18.47;84.83
77706;BME280;66874;45.274;5.880;2023-06-14T06:43:36;98353.56;;;18.64;84.90
77706;BME280;66874;45.274;5.880;2023-06-14T06:46:01;98351.59;;;18.82;84.61
77706;BME280;66874;45.274;5.880;2023-06-14T06:48:27;98352.22;;;18.99;84.34
77706;BME280;66874;45.274;5.880;2023-06-14T06:50:52;98351.50;;;19.10;84.17
77706;BME280;66874;45.274;5.880;2023-06-14T06:53:18;98357.56;;;19.12;83.91
77706;BME280;66874;45.274;5.880;2023-06-14T06:55:44;98361.06;;;19.13;83.59
77706;BME280;66874;45.274;5.880;2023-06-14T06:58:09;98358.03;;;19.19;83.43
77706;BME280;66874;45.274;5.880;2023-06-14T07:00:35;98363.13;;;19.22;83.59
77706;BME280;66874;45.274;5.880;2023-06-14T07:03:00;98358.34;;;19.27;83.47
77706;BME280;66874;45.274;5.880;2023-06-14T07:05:26;98363.81;;;19.38;83.41
77706;BME280;66874;45.274;5.880;2023-06-14T07:07:52;98363.09;;;19.49;83.18
77706;BME280;66874;45.274;5.880;2023-06-14T07:10:17;98366.94;;;19.58;82.72
77706;BME280;66874;45.274;5.880;2023-06-14T07:12:43;98375.91;;;19.69;82.77
77706;BME280;66874;45.274;5.880;2023-06-14T07:15:09;98367.63;;;19.87;82.18
77706;BME280;66874;45.274;5.880;2023-06-14T07:17:35;98365.75;;;20.02;81.69
77706;BME280;66874;45.274;5.880;2023-06-14T07:20:02;98373.81;;;20.13;81.06
77706;BME280;66874;45.274;5.880;2023-06-14T07:22:38;98376.06;;;20.19;80.75
77706;BME280;66874;45.274;5.880;2023-06-14T07:25:04;98370.00;;;20.17;80.28
77706;BME280;66874;45.274;5.880;2023-06-14T07:27:30;98377.22;;;20.28;80.40
77706;BME280;66874;45.274;5.880;2023-06-14T07:29:55;98370.09;;;20.28;80.25
77706;BME280;66874;45.274;5.880;2023-06-14T07:32:20;98366.59;;;20.28;79.89
77706;BME280;66874;45.274;5.880;2023-06-14T07:34:46;98364.38;;;20.34;79.35
77706;BME280;66874;45.274;5.880;2023-06-14T07:37:11;98362.44;;;20.36;79.20
77706;BME280;66874;45.274;5.880;2023-06-14T07:39:36;98361.38;;;20.52;79.11
77706;BME280;66874;45.274;5.880;2023-06-14T07:42:02;98368.06;;;20.70;78.77
77706;BME280;66874;45.274;5.880;2023-06-14T07:44:29;98367.50;;;20.78;78.29
77706;BME280;66874;45.274;5.880;2023-06-14T07:46:56;98373.53;;;20.92;78.67
77706;BME280;66874;45.274;5.880;2023-06-14T07:49:23;98373.59;;;21.04;78.67
77706;BME280;66874;45.274;5.880;2023-06-14T07:51:48;98363.97;;;21.14;78.39
77706;BME280;66874;45.274;5.880;2023-06-14T07:54:15;98362.13;;;21.27;78.39
77706;BME280;66874;45.274;5.880;2023-06-14T07:56:41;98368.16;;;21.42;78.18
77706;BME280;66874;45.274;5.880;2023-06-14T07:59:06;98359.84;;;21.58;77.55
77706;BME280;66874;45.274;5.880;2023-06-14T08:01:32;98366.28;;;21.66;77.04
77706;BME280;66874;45.274;5.880;2023-06-14T08:03:58;98361.97;;;21.77;76.06
77706;BME280;66874;45.274;5.880;2023-06-14T08:06:24;98361.72;;;21.68;75.82
77706;BME280;66874;45.274;5.880;2023-06-14T08:08:50;98359.53;;;21.74;75.52
77706;BME280;66874;45.274;5.880;2023-06-14T08:11:15;98358.59;;;21.86;75.11
77706;BME280;66874;45.274;5.880;2023-06-14T08:13:40;98364.66;;;21.88;75.16
77706;BME280;66874;45.274;5.880;2023-06-14T08:16:06;98358.84;;;21.94;74.88
77706;BME280;66874;45.274;5.880;2023-06-14T08:18:31;98357.03;;;21.94;74.29
77706;BME280;66874;45.274;5.880;2023-06-14T08:20:57;98360.69;;;22.05;74.53
77706;BME280;66874;45.274;5.880;2023-06-14T08:23:23;98362.06;;;22.10;73.97
77706;BME280;66874;45.274;5.880;2023-06-14T08:25:48;98362.50;;;22.04;73.48
77706;BME280;66874;45.274;5.880;2023-06-14T08:28:13;98357.31;;;22.03;73.73
77706;BME280;66874;45.274;5.880;2023-06-14T08:30:39;98358.03;;;22.05;73.47
77706;BME280;66874;45.274;5.880;2023-06-14T08:33:04;98357.25;;;22.15;73.48
77706;BME280;66874;45.274;5.880;2023-06-14T08:35:30;98352.03;;;22.25;73.12
77706;BME280;66874;45.274;5.880;2023-06-14T08:37:55;98347.81;;;22.34;72.94
77706;BME280;66874;45.274;5.880;2023-06-14T08:40:23;98356.88;;;22.42;72.44
77706;BME280;66874;45.274;5.880;2023-06-14T08:42:54;98357.13;;;22.28;72.14
77706;BME280;66874;45.274;5.880;2023-06-14T08:45:23;98346.34;;;22.30;72.58
77706;BME280;66874;45.274;5.880;2023-06-14T08:47:50;98350.34;;;22.35;72.77
77706;BME280;66874;45.274;5.880;2023-06-14T08:50:21;98350.81;;;22.52;72.71
77706;BME280;66874;45.274;5.880;2023-06-14T08:52:48;98346.69;;;22.59;72.14
77706;BME280;66874;45.274;5.880;2023-06-14T08:55:18;98350.34;;;22.69;71.98
77706;BME280;66874;45.274;5.880;2023-06-14T08:57:46;98348.13;;;22.74;71.70
77706;BME280;66874;45.274;5.880;2023-06-14T09:00:12;98347.41;;;22.83;71.70
77706;BME280;66874;45.274;5.880;2023-06-14T09:02:39;98346.69;;;22.93;71.23
77706;BME280;66874;45.274;5.880;2023-06-14T09:05:11;98343.78;;;22.84;70.55
77706;BME280;66874;45.274;5.880;2023-06-14T09:07:39;98343.31;;;22.68;70.18
77706;BME280;66874;45.274;5.880;2023-06-14T09:10:10;98344.16;;;22.69;70.62
77706;BME280;66874;45.274;5.880;2023-06-14T09:12:36;98343.53;;;22.76;70.53
77706;BME280;66874;45.274;5.880;2023-06-14T09:15:03;98344.84;;;22.82;70.93
77706;BME280;66874;45.274;5.880;2023-06-14T09:17:36;98346.56;;;22.94;71.22
77706;BME280;66874;45.274;5.880;2023-06-14T09:20:03;98338.06;;;23.00;70.89
77706;BME280;66874;45.274;5.880;2023-06-14T09:22:32;98340.91;;;23.20;71.21
77706;BME280;66874;45.274;5.880;2023-06-14T09:24:57;98341.09;;;23.39;71.61
77706;BME280;66874;45.274;5.880;2023-06-14T09:27:22;98343.72;;;23.50;69.72
77706;BME280;66874;45.274;5.880;2023-06-14T09:29:50;98344.94;;;23.46;69.76
77706;BME280;66874;45.274;5.880;2023-06-14T09:32:16;98345.00;;;23.56;69.61
77706;BME280;66874;45.274;5.880;2023-06-14T09:34:41;98344.03;;;23.57;68.91
77706;BME280;66874;45.274;5.880;2023-06-14T09:37:07;98352.16;;;23.67;69.04
77706;BME280;66874;45.274;5.880;2023-06-14T09:39:32;98342.13;;;23.80;69.19
77706;BME280;66874;45.274;5.880;2023-06-14T09:41:58;98338.41;;;23.92;68.90
77706;BME280;66874;45.274;5.880;2023-06-14T09:44:25;98336.06;;;23.99;68.83
77706;BME280;66874;45.274;5.880;2023-06-14T09:46:55;98328.53;;;24.13;67.90
77706;BME280;66874;45.274;5.880;2023-06-14T09:49:21;98320.75;;;24.31;67.43
77706;BME280;66874;45.274;5.880;2023-06-14T09:51:50;98327.03;;;24.42;66.48
77706;BME280;66874;45.274;5.880;2023-06-14T09:54:16;98332.44;;;24.61;66.92
77706;BME280;66874;45.274;5.880;2023-06-14T09:56:47;98325.75;;;24.86;66.24
77706;BME280;66874;45.274;5.880;2023-06-14T09:59:16;98333.53;;;25.08;65.93
77706;BME280;66874;45.274;5.880;2023-06-14T10:01:44;98326.97;;;25.32;65.18
77706;BME280;66874;45.274;5.880;2023-06-14T10:04:13;98324.56;;;25.58;64.38
77706;BME280;66874;45.274;5.880;2023-06-14T10:06:41;98327.09;;;25.79;63.17
77706;BME280;66874;45.274;5.880;2023-06-14T10:09:09;98324.00;;;25.84;61.51
77706;BME280;66874;45.274;5.880;2023-06-14T10:11:36;98324.81;;;25.94;62.07
77706;BME280;66874;45.274;5.880;2023-06-14T10:14:04;98324.75;;;26.23;61.44
77706;BME280;66874;45.274;5.880;2023-06-14T10:16:47;98321.75;;;26.45;60.94
77706;BME280;66874;45.274;5.880;2023-06-14T10:19:23;98317.78;;;26.67;61.08
77706;BME280;66874;45.274;5.880;2023-06-14T10:24:45;98325.06;;;27.30;58.79
77706;BME280;66874;45.274;5.880;2023-06-14T10:27:13;98324.53;;;27.26;57.71
77706;BME280;66874;45.274;5.880;2023-06-14T10:32:20;98318.69;;;27.49;58.28
77706;BME280;66874;45.274;5.880;2023-06-14T10:34:53;98306.53;;;27.81;57.61
77706;BME280;66874;45.274;5.880;2023-06-14T10:37:19;98306.25;;;28.10;57.30
77706;BME280;66874;45.274;5.880;2023-06-14T10:39:45;98299.88;;;28.37;55.96
77706;BME280;66874;45.274;5.880;2023-06-14T10:42:12;98307.03;;;28.02;55.73
77706;BME280;66874;45.274;5.880;2023-06-14T10:44:42;98304.22;;;27.86;55.72
77706;BME280;66874;45.274;5.880;2023-06-14T10:49:54;98316.06;;;27.39;56.14
77706;BME280;66874;45.274;5.880;2023-06-14T10:52:22;98308.25;;;27.28;56.89
77706;BME280;66874;45.274;5.880;2023-06-14T10:55:11;98299.09;;;28.01;56.30
77706;BME280;66874;45.274;5.880;2023-06-14T11:00:19;98295.28;;;29.22;53.61
77706;BME280;66874;45.274;5.880;2023-06-14T11:08:17;98298.16;;;29.37;50.71
77706;BME280;66874;45.274;5.880;2023-06-14T11:10:49;98299.06;;;28.95;51.60
77706;BME280;66874;45.274;5.880;2023-06-14T11:13:18;98298.13;;;28.70;51.74
77706;BME280;66874;45.274;5.880;2023-06-14T11:15:45;98292.81;;;28.44;51.40
77706;BME280;66874;45.274;5.880;2023-06-14T11:18:14;98298.72;;;28.47;50.94
77706;BME280;66874;45.274;5.880;2023-06-14T11:20:41;98293.09;;;28.07;50.39
77706;BME280;66874;45.274;5.880;2023-06-14T11:23:07;98284.59;;;28.45;51.57
77706;BME280;66874;45.274;5.880;2023-06-14T11:25:32;98275.19;;;29.08;49.10
77706;BME280;66874;45.274;5.880;2023-06-14T11:27:58;98283.28;;;29.25;46.91
77706;BME280;66874;45.274;5.880;2023-06-14T11:30:24;98281.81;;;29.71;46.14
77706;BME280;66874;45.274;5.880;2023-06-14T11:32:52;98274.00;;;30.25;44.95
77706;BME280;66874;45.274;5.880;2023-06-14T11:35:19;98280.00;;;30.35;43.76
77706;BME280;66874;45.274;5.880;2023-06-14T11:37:45;98268.66;;;30.56;42.95
77706;BME280;66874;45.274;5.880;2023-06-14T11:40:11;98274.47;;;30.76;42.09
77706;BME280;66874;45.274;5.880;2023-06-14T11:42:38;98268.03;;;30.77;42.99
77706;BME280;66874;45.274;5.880;2023-06-14T11:45:05;98268.44;;;30.97;41.37
77706;BME280;66874;45.274;5.880;2023-06-14T11:47:33;98268.38;;;31.28;40.39
77706;BME280;66874;45.274;5.880;2023-06-14T11:49:59;98262.59;;;31.40;40.21
77706;BME280;66874;45.274;5.880;2023-06-14T11:52:25;98266.25;;;31.47;39.11
77706;BME280;66874;45.274;5.880;2023-06-14T11:54:51;98267.44;;;31.44;38.60
77706;BME280;66874;45.274;5.880;2023-06-14T11:57:18;98260.06;;;31.38;38.67
77706;BME280;66874;45.274;5.880;2023-06-14T11:59:44;98262.50;;;31.48;38.29
77706;BME280;66874;45.274;5.880;2023-06-14T12:02:14;98249.03;;;31.63;37.58
77706;BME280;66874;45.274;5.880;2023-06-14T12:04:43;98251.72;;;31.85;37.23
77706;BME280;66874;45.274;5.880;2023-06-14T12:12:28;98250.69;;;32.16;35.71
77706;BME280;66874;45.274;5.880;2023-06-14T12:14:55;98251.63;;;32.08;34.99
77706;BME280;66874;45.274;5.880;2023-06-14T12:17:22;98245.19;;;32.24;34.56
77706;BME280;66874;45.274;5.880;2023-06-14T12:19:48;98238.69;;;32.48;34.42
77706;BME280;66874;45.274;5.880;2023-06-14T12:22:15;98233.75;;;32.73;33.31
77706;BME280;66874;45.274;5.880;2023-06-14T12:24:45;98237.28;;;32.52;31.55
77706;BME280;66874;45.274;5.880;2023-06-14T12:27:11;98245.19;;;32.54;31.53
77706;BME280;66874;45.274;5.880;2023-06-14T12:29:43;98233.56;;;32.75;31.12
77706;BME280;66874;45.274;5.880;2023-06-14T12:32:09;98236.13;;;32.98;32.01
77706;BME280;66874;45.274;5.880;2023-06-14T12:34:34;98234.00;;;33.36;32.19
77706;BME280;66874;45.274;5.880;2023-06-14T12:37:00;98229.19;;;33.53;30.55
77706;BME280;66874;45.274;5.880;2023-06-14T12:39:26;98236.63;;;33.72;30.16
77706;BME280;66874;45.274;5.880;2023-06-14T12:41:51;98235.03;;;33.85;30.30
77706;BME280;66874;45.274;5.880;2023-06-14T12:44:17;98235.03;;;33.85;29.49
77706;BME280;66874;45.274;5.880;2023-06-14T12:46:42;98229.47;;;33.65;28.49
77706;BME280;66874;45.274;5.880;2023-06-14T12:49:10;98226.03;;;33.49;28.66
77706;BME280;66874;45.274;5.880;2023-06-14T12:51:36;98224.97;;;33.50;27.85
77706;BME280;66874;45.274;5.880;2023-06-14T12:54:02;98224.69;;;33.67;29.30
77706;BME280;66874;45.274;5.880;2023-06-14T12:56:28;98221.53;;;33.91;28.49
77706;BME280;66874;45.274;5.880;2023-06-14T12:58:53;98219.88;;;33.97;28.36
77706;BME280;66874;45.274;5.880;2023-06-14T13:01:19;98223.19;;;33.92;27.46
77706;BME280;66874;45.274;5.880;2023-06-14T13:03:46;98221.63;;;33.98;27.42
77706;BME280;66874;45.274;5.880;2023-06-14T13:06:11;98214.75;;;34.09;26.60
77706;BME280;66874;45.274;5.880;2023-06-14T13:08:37;98224.22;;;34.19;26.56
77706;BME280;66874;45.274;5.880;2023-06-14T13:11:02;98219.50;;;34.35;26.65
77706;BME280;66874;45.274;5.880;2023-06-14T13:13:27;98223.47;;;34.39;26.85
77706;BME280;66874;45.274;5.880;2023-06-14T13:15:53;98227.28;;;34.44;26.72
77706;BME280;66874;45.274;5.880;2023-06-14T13:18:18;98219.66;;;34.68;26.95
77706;BME280;66874;45.274;5.880;2023-06-14T13:20:46;98224.16;;;35.15;26.56
77706;BME280;66874;45.274;5.880;2023-06-14T13:23:12;98223.56;;;35.46;26.15